sensor_id;sensor_type;location;lat;lon;timestamp;temperature;humidity
24686;DHT22;12804;51.176;4.452;2023-01-24T00:01:42;4.10;99.90
24686;DHT22;12804;51.176;4.452;2023-01-24T00:04:08;4.20;99.90
24686;DHT22;12804;51.176;4.452;2023-01-24T00:06:33;4.30;99.90
24686;DHT22;12804;51.176;4.452;2023-01-24T00:08:59;4.40;99.90
24686;DHT22;12804;51.176;4.452;2023-01-24T00:11:25;4.30;99.90
24686;DHT22;12804;51.176;4.452;2023-01-24T00:13:51;4.20;99.90
24686;DHT22;12804;51.176;4.452;2023-01-24T00:16:19;4.20;99.90
24686;DHT22;12804;51.176;4.452;2023-01-24T00:18:46;4.20;99.90
24686;DHT22;12804;51.176;4.452;2023-01-24T00:21:18;4.10;99.90
24686;DHT22;12804;51.176;4.452;2023-01-24T00:23:50;4.20;99.90
24686;DHT22;12804;51.176;4.452;2023-01-24T00:26:16;4.10;99.90
24686;DHT22;12804;51.176;4.452;2023-01-24T00:28:45;4.20;99.90
24686;DHT22;12804;51.176;4.452;2023-01-24T00:31:11;4.10;99.90
24686;DHT22;12804;51.176;4.452;2023-01-24T00:33:37;4.00;99.90
24686;DHT22;12804;51.176;4.452;2023-01-24T00:36:03;3.90;99.90
24686;DHT22;12804;51.176;4.452;2023-01-24T00:38:31;4.20;99.90
24686;DHT22;12804;51.176;4.452;2023-01-24T00:40:57;4.30;99.90
24686;DHT22;12804;51.176;4.452;2023-01-24T00:43:23;4.40;99.90
24686;DHT22;12804;51.176;4.452;2023-01-24T00:45:52;4.30;99.90
24686;DHT22;12804;51.176;4.452;2023-01-24T00:48:21;4.40;99.90
24686;DHT22;12804;51.176;4.452;2023-01-24T00:50:46;4.40;99.90
24686;DHT22;12804;51.176;4.452;2023-01-24T00:53:12;4.20;99.90
24686;DHT22;12804;51.176;4.452;2023-01-24T00:55:46;4.20;99.90
24686;DHT22;12804;51.176;4.452;2023-01-24T00:58:13;4.30;99.90
24686;DHT22;12804;51.176;4.452;2023-01-24T01:00:39;4.40;99.90
24686;DHT22;12804;51.176;4.452;2023-01-24T01:03:07;4.50;99.90
24686;DHT22;12804;51.176;4.452;2023-01-24T01:05:33;4.50;99.90
24686;DHT22;12804;51.176;4.452;2023-01-24T01:07:58;4.30;99.90
24686;DHT22;12804;51.176;4.452;2023-01-24T01:10:24;4.20;99.90
24686;DHT22;12804;51.176;4.452;2023-01-24T01:12:50;4.20;99.90
24686;DHT22;12804;51.176;4.452;2023-01-24T01:15:16;4.00;99.90
24686;DHT22;12804;51.176;4.452;2023-01-24T01:17:42;4.00;99.90
24686;DHT22;12804;51.176;4.452;2023-01-24T01:20:08;4.20;99.90
24686;DHT22;12804;51.176;4.452;2023-01-24T01:22:34;4.10;99.90
24686;DHT22;12804;51.176;4.452;2023-01-24T01:25:01;4.00;99.90
24686;DHT22;12804;51.176;4.452;2023-01-24T01:27:26;4.00;99.90
24686;DHT22;12804;51.176;4.452;2023-01-24T01:29:52;4.00;99.90
24686;DHT22;12804;51.176;4.452;2023-01-24T01:32:18;4.10;99.90
24686;DHT22;12804;51.176;4.452;2023-01-24T01:34:44;4.20;99.90
24686;DHT22;12804;51.176;4.452;2023-01-24T01:37:10;4.40;99.90
24686;DHT22;12804;51.176;4.452;2023-01-24T01:39:36;4.20;99.90
24686;DHT22;12804;51.176;4.452;2023-01-24T01:42:03;4.10;99.90
24686;DHT22;12804;51.176;4.452;2023-01-24T01:44:30;4.00;99.90
24686;DHT22;12804;51.176;4.452;2023-01-24T01:47:36;3.90;99.90
24686;DHT22;12804;51.176;4.452;2023-01-24T01:50:35;3.90;99.90
24686;DHT22;12804;51.176;4.452;2023-01-24T01:53:03;3.90;99.90
24686;DHT22;12804;51.176;4.452;2023-01-24T01:55:33;3.80;99.90
24686;DHT22;12804;51.176;4.452;2023-01-24T01:58:01;3.70;99.90
24686;DHT22;12804;51.176;4.452;2023-01-24T02:00:28;3.80;99.90
24686;DHT22;12804;51.176;4.452;2023-01-24T02:03:03;3.80;99.90
24686;DHT22;12804;51.176;4.452;2023-01-24T02:05:50;3.80;99.90
24686;DHT22;12804;51.176;4.452;2023-01-24T02:08:21;3.90;99.90
24686;DHT22;12804;51.176;4.452;2023-01-24T02:10:48;3.90;99.90
24686;DHT22;12804;51.176;4.452;2023-01-24T02:13:35;3.80;99.90
24686;DHT22;12804;51.176;4.452;2023-01-24T02:16:01;3.90;99.90
24686;DHT22;12804;51.176;4.452;2023-01-24T02:18:30;3.90;99.90
24686;DHT22;12804;51.176;4.452;2023-01-24T02:20:57;3.90;99.90
24686;DHT22;12804;51.176;4.452;2023-01-24T02:26:14;3.80;99.90
24686;DHT22;12804;51.176;4.452;2023-01-24T02:28:49;3.80;99.90
24686;DHT22;12804;51.176;4.452;2023-01-24T02:31:15;3.80;99.90
24686;DHT22;12804;51.176;4.452;2023-01-24T02:33:42;3.80;99.90
24686;DHT22;12804;51.176;4.452;2023-01-24T02:38:46;4.10;99.90
24686;DHT22;12804;51.176;4.452;2023-01-24T02:41:15;4.10;99.90
24686;DHT22;12804;51.176;4.452;2023-01-24T02:43:46;4.00;99.90
24686;DHT22;12804;51.176;4.452;2023-01-24T02:46:14;3.80;99.90
24686;DHT22;12804;51.176;4.452;2023-01-24T02:48:40;3.80;99.90
24686;DHT22;12804;51.176;4.452;2023-01-24T02:51:05;3.80;99.90
24686;DHT22;12804;51.176;4.452;2023-01-24T02:53:50;3.90;99.90
24686;DHT22;12804;51.176;4.452;2023-01-24T02:56:16;3.90;99.90
24686;DHT22;12804;51.176;4.452;2023-01-24T02:59:00;3.90;99.90
24686;DHT22;12804;51.176;4.452;2023-01-24T03:01:28;4.00;99.90
24686;DHT22;12804;51.176;4.452;2023-01-24T03:03:55;4.00;99.90
24686;DHT22;12804;51.176;4.452;2023-01-24T03:06:21;4.00;99.90
24686;DHT22;12804;51.176;4.452;2023-01-24T03:08:47;3.80;99.90
24686;DHT22;12804;51.176;4.452;2023-01-24T03:11:26;3.90;99.90
24686;DHT22;12804;51.176;4.452;2023-01-24T03:13:52;4.00;99.90
24686;DHT22;12804;51.176;4.452;2023-01-24T03:16:37;4.20;99.90
24686;DHT22;12804;51.176;4.452;2023-01-24T03:19:21;4.30;99.90
24686;DHT22;12804;51.176;4.452;2023-01-24T03:22:06;4.20;99.90
24686;DHT22;12804;51.176;4.452;2023-01-24T03:24:51;4.20;99.90
24686;DHT22;12804;51.176;4.452;2023-01-24T03:27:36;3.90;99.90
24686;DHT22;12804;51.176;4.452;2023-01-24T03:30:26;3.80;99.90
24686;DHT22;12804;51.176;4.452;2023-01-24T03:33:10;3.90;99.90
24686;DHT22;12804;51.176;4.452;2023-01-24T03:35:55;4.00;99.90
24686;DHT22;12804;51.176;4.452;2023-01-24T03:38:25;4.20;99.90
24686;DHT22;12804;51.176;4.452;2023-01-24T03:41:10;4.20;99.90
24686;DHT22;12804;51.176;4.452;2023-01-24T03:43:37;3.90;99.90
24686;DHT22;12804;51.176;4.452;2023-01-24T03:46:04;3.90;99.90
24686;DHT22;12804;51.176;4.452;2023-01-24T03:48:50;3.90;99.90
24686;DHT22;12804;51.176;4.452;2023-01-24T03:51:18;4.00;99.90
24686;DHT22;12804;51.176;4.452;2023-01-24T03:54:02;4.10;99.90
24686;DHT22;12804;51.176;4.452;2023-01-24T03:56:36;4.10;99.90
24686;DHT22;12804;51.176;4.452;2023-01-24T03:59:03;3.90;99.90
24686;DHT22;12804;51.176;4.452;2023-01-24T04:01:32;3.80;99.90
24686;DHT22;12804;51.176;4.452;2023-01-24T04:04:05;3.60;99.90
24686;DHT22;12804;51.176;4.452;2023-01-24T04:06:31;3.80;99.90
24686;DHT22;12804;51.176;4.452;2023-01-24T04:08:58;4.00;99.90
24686;DHT22;12804;51.176;4.452;2023-01-24T04:11:25;4.20;99.90
24686;DHT22;12804;51.176;4.452;2023-01-24T04:13:56;4.10;99.90
24686;DHT22;12804;51.176;4.452;2023-01-24T04:16:22;3.90;99.90
24686;DHT22;12804;51.176;4.452;2023-01-24T04:18:51;3.90;99.90
24686;DHT22;12804;51.176;4.452;2023-01-24T04:21:20;4.00;99.90
24686;DHT22;12804;51.176;4.452;2023-01-24T04:23:46;3.90;99.90
24686;DHT22;12804;51.176;4.452;2023-01-24T04:26:12;4.00;99.90
24686;DHT22;12804;51.176;4.452;2023-01-24T04:28:38;4.10;99.90
24686;DHT22;12804;51.176;4.452;2023-01-24T04:31:05;4.00;99.90
24686;DHT22;12804;51.176;4.452;2023-01-24T04:33:56;4.10;99.90
24686;DHT22;12804;51.176;4.452;2023-01-24T04:36:26;4.00;99.90
24686;DHT22;12804;51.176;4.452;2023-01-24T04:38:52;4.10;99.90
24686;DHT22;12804;51.176;4.452;2023-01-24T04:41:23;4.20;99.90
24686;DHT22;12804;51.176;4.452;2023-01-24T04:43:50;4.20;99.90
24686;DHT22;12804;51.176;4.452;2023-01-24T04:46:16;4.20;99.90
24686;DHT22;12804;51.176;4.452;2023-01-24T04:48:51;4.00;99.90
24686;DHT22;12804;51.176;4.452;2023-01-24T04:51:17;3.70;99.90
24686;DHT22;12804;51.176;4.452;2023-01-24T04:53:45;3.60;99.90
24686;DHT22;12804;51.176;4.452;2023-01-24T04:56:13;3.70;99.90
24686;DHT22;12804;51.176;4.452;2023-01-24T04:58:38;3.70;99.90
24686;DHT22;12804;51.176;4.452;2023-01-24T05:01:05;3.80;99.90
24686;DHT22;12804;51.176;4.452;2023-01-24T05:03:35;3.80;99.90
24686;DHT22;12804;51.176;4.452;2023-01-24T05:06:02;3.80;99.90
24686;DHT22;12804;51.176;4.452;2023-01-24T05:08:28;3.90;99.90
24686;DHT22;12804;51.176;4.452;2023-01-24T05:10:54;4.10;99.90
24686;DHT22;12804;51.176;4.452;2023-01-24T05:13:20;4.00;99.90
24686;DHT22;12804;51.176;4.452;2023-01-24T05:15:50;4.20;99.90
24686;DHT22;12804;51.176;4.452;2023-01-24T05:18:17;4.30;99.90
24686;DHT22;12804;51.176;4.452;2023-01-24T05:20:45;4.20;99.90
24686;DHT22;12804;51.176;4.452;2023-01-24T05:23:12;4.20;99.90
24686;DHT22;12804;51.176;4.452;2023-01-24T05:25:41;4.40;99.90
24686;DHT22;12804;51.176;4.452;2023-01-24T05:28:07;4.00;99.90
24686;DHT22;12804;51.176;4.452;2023-01-24T05:30:39;3.90;99.90
24686;DHT22;12804;51.176;4.452;2023-01-24T05:33:17;3.90;99.90
24686;DHT22;12804;51.176;4.452;2023-01-24T05:35:43;3.80;99.90
24686;DHT22;12804;51.176;4.452;2023-01-24T05:38:10;3.80;99.90
24686;DHT22;12804;51.176;4.452;2023-01-24T05:40:37;3.90;99.90
24686;DHT22;12804;51.176;4.452;2023-01-24T05:43:05;3.90;99.90
24686;DHT22;12804;51.176;4.452;2023-01-24T05:45:30;4.00;99.90
24686;DHT22;12804;51.176;4.452;2023-01-24T05:47:57;4.00;99.90
24686;DHT22;12804;51.176;4.452;2023-01-24T05:50:23;4.00;99.90
24686;DHT22;12804;51.176;4.452;2023-01-24T05:53:09;4.00;99.90
24686;DHT22;12804;51.176;4.452;2023-01-24T05:55:34;4.10;99.90
24686;DHT22;12804;51.176;4.452;2023-01-24T05:58:01;3.90;99.90
24686;DHT22;12804;51.176;4.452;2023-01-24T06:00:47;3.80;99.90
24686;DHT22;12804;51.176;4.452;2023-01-24T06:03:34;3.90;99.90
24686;DHT22;12804;51.176;4.452;2023-01-24T06:06:00;3.90;99.90
24686;DHT22;12804;51.176;4.452;2023-01-24T06:08:28;4.00;99.90
24686;DHT22;12804;51.176;4.452;2023-01-24T06:10:54;4.00;99.90
24686;DHT22;12804;51.176;4.452;2023-01-24T06:13:22;4.00;99.90
24686;DHT22;12804;51.176;4.452;2023-01-24T06:15:48;4.00;99.90
24686;DHT22;12804;51.176;4.452;2023-01-24T06:18:15;4.00;99.90
24686;DHT22;12804;51.176;4.452;2023-01-24T06:20:44;3.90;99.90
24686;DHT22;12804;51.176;4.452;2023-01-24T06:23:19;4.10;99.90
24686;DHT22;12804;51.176;4.452;2023-01-24T06:25:48;4.20;99.90
24686;DHT22;12804;51.176;4.452;2023-01-24T06:28:14;4.20;99.90
24686;DHT22;12804;51.176;4.452;2023-01-24T06:30:42;4.20;99.90
24686;DHT22;12804;51.176;4.452;2023-01-24T06:33:25;4.20;99.90
24686;DHT22;12804;51.176;4.452;2023-01-24T06:36:15;4.20;99.90
24686;DHT22;12804;51.176;4.452;2023-01-24T06:38:43;4.10;99.90
24686;DHT22;12804;51.176;4.452;2023-01-24T06:41:18;4.10;99.90
24686;DHT22;12804;51.176;4.452;2023-01-24T06:43:44;4.20;99.90
24686;DHT22;12804;51.176;4.452;2023-01-24T06:46:11;4.10;99.90
24686;DHT22;12804;51.176;4.452;2023-01-24T06:48:37;3.90;99.90
24686;DHT22;12804;51.176;4.452;2023-01-24T06:51:03;4.00;99.90
24686;DHT22;12804;51.176;4.452;2023-01-24T06:53:29;4.00;99.90
24686;DHT22;12804;51.176;4.452;2023-01-24T06:55:55;4.10;99.90
24686;DHT22;12804;51.176;4.452;2023-01-24T06:58:20;3.90;99.90
24686;DHT22;12804;51.176;4.452;2023-01-24T07:00:46;3.90;99.90
24686;DHT22;12804;51.176;4.452;2023-01-24T07:03:12;4.00;99.90
24686;DHT22;12804;51.176;4.452;2023-01-24T07:05:38;4.10;99.90
24686;DHT22;12804;51.176;4.452;2023-01-24T07:08:05;3.80;99.90
24686;DHT22;12804;51.176;4.452;2023-01-24T07:10:32;4.00;99.90
24686;DHT22;12804;51.176;4.452;2023-01-24T07:12:57;4.30;99.90
24686;DHT22;12804;51.176;4.452;2023-01-24T07:15:24;4.20;99.90
24686;DHT22;12804;51.176;4.452;2023-01-24T07:17:50;4.20;99.90
24686;DHT22;12804;51.176;4.452;2023-01-24T07:20:16;3.90;99.90
24686;DHT22;12804;51.176;4.452;2023-01-24T07:22:43;3.80;99.90
24686;DHT22;12804;51.176;4.452;2023-01-24T07:27:39;3.80;99.90
24686;DHT22;12804;51.176;4.452;2023-01-24T07:30:06;3.90;99.90
24686;DHT22;12804;51.176;4.452;2023-01-24T07:32:32;3.90;99.90
24686;DHT22;12804;51.176;4.452;2023-01-24T07:34:58;3.80;99.90
24686;DHT22;12804;51.176;4.452;2023-01-24T07:37:24;3.80;99.90
24686;DHT22;12804;51.176;4.452;2023-01-24T07:39:49;3.80;99.90
24686;DHT22;12804;51.176;4.452;2023-01-24T07:42:15;3.70;99.90
24686;DHT22;12804;51.176;4.452;2023-01-24T07:44:41;3.80;99.90
24686;DHT22;12804;51.176;4.452;2023-01-24T07:47:07;3.80;99.90
24686;DHT22;12804;51.176;4.452;2023-01-24T07:49:33;3.80;99.90
24686;DHT22;12804;51.176;4.452;2023-01-24T07:51:58;4.00;99.90
24686;DHT22;12804;51.176;4.452;2023-01-24T07:54:24;4.10;99.90
24686;DHT22;12804;51.176;4.452;2023-01-24T07:56:50;4.10;99.90
24686;DHT22;12804;51.176;4.452;2023-01-24T07:59:16;4.20;99.90
24686;DHT22;12804;51.176;4.452;2023-01-24T08:01:42;4.20;99.90
24686;DHT22;12804;51.176;4.452;2023-01-24T08:04:09;3.80;99.90
24686;DHT22;12804;51.176;4.452;2023-01-24T08:06:34;3.90;99.90
24686;DHT22;12804;51.176;4.452;2023-01-24T08:09:00;3.80;99.90
24686;DHT22;12804;51.176;4.452;2023-01-24T08:11:26;3.80;99.90
24686;DHT22;12804;51.176;4.452;2023-01-24T08:13:52;3.70;99.90
24686;DHT22;12804;51.176;4.452;2023-01-24T08:16:18;3.80;99.90
24686;DHT22;12804;51.176;4.452;2023-01-24T08:18:49;3.70;99.90
24686;DHT22;12804;51.176;4.452;2023-01-24T08:21:15;3.70;99.90
24686;DHT22;12804;51.176;4.452;2023-01-24T08:23:41;3.60;99.90
24686;DHT22;12804;51.176;4.452;2023-01-24T08:26:07;3.70;99.90
24686;DHT22;12804;51.176;4.452;2023-01-24T08:28:33;3.80;99.90
24686;DHT22;12804;51.176;4.452;2023-01-24T08:30:59;3.80;99.90
24686;DHT22;12804;51.176;4.452;2023-01-24T08:33:25;3.90;99.90
24686;DHT22;12804;51.176;4.452;2023-01-24T08:35:51;3.80;99.90
24686;DHT22;12804;51.176;4.452;2023-01-24T08:38:17;3.60;99.90
24686;DHT22;12804;51.176;4.452;2023-01-24T08:40:43;3.70;99.90
24686;DHT22;12804;51.176;4.452;2023-01-24T08:43:09;3.80;99.90
24686;DHT22;12804;51.176;4.452;2023-01-24T08:45:35;3.60;99.90
24686;DHT22;12804;51.176;4.452;2023-01-24T08:48:01;3.60;99.90
24686;DHT22;12804;51.176;4.452;2023-01-24T08:50:27;3.60;99.90
24686;DHT22;12804;51.176;4.452;2023-01-24T08:52:57;3.70;99.90
24686;DHT22;12804;51.176;4.452;2023-01-24T08:55:24;3.70;99.90
24686;DHT22;12804;51.176;4.452;2023-01-24T08:57:50;3.60;99.90
24686;DHT22;12804;51.176;4.452;2023-01-24T09:00:16;3.50;99.90
24686;DHT22;12804;51.176;4.452;2023-01-24T09:02:42;3.70;99.90
24686;DHT22;12804;51.176;4.452;2023-01-24T09:05:08;3.70;99.90
24686;DHT22;12804;51.176;4.452;2023-01-24T09:07:35;3.90;99.90
24686;DHT22;12804;51.176;4.452;2023-01-24T09:10:03;4.00;99.90
24686;DHT22;12804;51.176;4.452;2023-01-24T09:12:29;4.00;99.90
24686;DHT22;12804;51.176;4.452;2023-01-24T09:14:57;4.00;99.90
24686;DHT22;12804;51.176;4.452;2023-01-24T09:17:23;3.90;99.90
24686;DHT22;12804;51.176;4.452;2023-01-24T09:19:49;4.00;99.90
24686;DHT22;12804;51.176;4.452;2023-01-24T09:22:15;4.10;99.90
24686;DHT22;12804;51.176;4.452;2023-01-24T09:24:41;4.00;99.90
24686;DHT22;12804;51.176;4.452;2023-01-24T09:27:07;3.90;99.90
24686;DHT22;12804;51.176;4.452;2023-01-24T09:29:33;4.00;99.90
24686;DHT22;12804;51.176;4.452;2023-01-24T09:31:58;4.10;99.90
24686;DHT22;12804;51.176;4.452;2023-01-24T09:34:24;4.20;99.90
24686;DHT22;12804;51.176;4.452;2023-01-24T09:36:50;4.40;99.90
24686;DHT22;12804;51.176;4.452;2023-01-24T09:39:16;4.40;99.90
24686;DHT22;12804;51.176;4.452;2023-01-24T09:44:54;4.60;99.90
24686;DHT22;12804;51.176;4.452;2023-01-24T09:47:27;4.40;99.90
24686;DHT22;12804;51.176;4.452;2023-01-24T09:50:03;4.40;99.90
24686;DHT22;12804;51.176;4.452;2023-01-24T09:52:58;4.00;99.90
24686;DHT22;12804;51.176;4.452;2023-01-24T09:55:37;3.80;99.90
24686;DHT22;12804;51.176;4.452;2023-01-24T10:00:44;4.20;99.90
24686;DHT22;12804;51.176;4.452;2023-01-24T10:03:18;4.20;99.90
24686;DHT22;12804;51.176;4.452;2023-01-24T10:05:49;4.10;99.90
24686;DHT22;12804;51.176;4.452;2023-01-24T10:08:34;4.30;99.90
24686;DHT22;12804;51.176;4.452;2023-01-24T10:11:18;4.30;99.90
24686;DHT22;12804;51.176;4.452;2023-01-24T10:19:34;4.30;99.90
24686;DHT22;12804;51.176;4.452;2023-01-24T10:22:13;4.20;99.90
24686;DHT22;12804;51.176;4.452;2023-01-24T10:25:19;3.90;99.90
24686;DHT22;12804;51.176;4.452;2023-01-24T10:27:50;3.90;99.90
24686;DHT22;12804;51.176;4.452;2023-01-24T10:32:50;3.80;99.90
24686;DHT22;12804;51.176;4.452;2023-01-24T10:35:22;3.80;99.90
24686;DHT22;12804;51.176;4.452;2023-01-24T10:37:51;3.90;99.90
24686;DHT22;12804;51.176;4.452;2023-01-24T10:40:22;4.10;99.90
24686;DHT22;12804;51.176;4.452;2023-01-24T10:42:50;4.20;99.90
24686;DHT22;12804;51.176;4.452;2023-01-24T10:47:53;3.90;99.90
24686;DHT22;12804;51.176;4.452;2023-01-24T10:50:22;4.10;99.90
24686;DHT22;12804;51.176;4.452;2023-01-24T10:52:49;4.20;99.90
24686;DHT22;12804;51.176;4.452;2023-01-24T10:55:32;4.30;99.90
24686;DHT22;12804;51.176;4.452;2023-01-24T10:58:25;4.40;99.90
24686;DHT22;12804;51.176;4.452;2023-01-24T11:01:47;4.50;99.90
24686;DHT22;12804;51.176;4.452;2023-01-24T11:03:53;4.60;99.90
24686;DHT22;12804;51.176;4.452;2023-01-24T11:06:37;4.60;99.90
24686;DHT22;12804;51.176;4.452;2023-01-24T11:09:12;4.60;99.90
24686;DHT22;12804;51.176;4.452;2023-01-24T11:11:51;4.30;99.90
24686;DHT22;12804;51.176;4.452;2023-01-24T11:14:31;4.20;99.90
24686;DHT22;12804;51.176;4.452;2023-01-24T11:16:59;4.40;99.90
24686;DHT22;12804;51.176;4.452;2023-01-24T11:19:36;4.50;99.90
24686;DHT22;12804;51.176;4.452;2023-01-24T11:22:23;4.50;99.90
24686;DHT22;12804;51.176;4.452;2023-01-24T11:24:49;4.60;99.90
24686;DHT22;12804;51.176;4.452;2023-01-24T11:27:18;4.60;99.90
24686;DHT22;12804;51.176;4.452;2023-01-24T11:29:44;4.80;99.90
24686;DHT22;12804;51.176;4.452;2023-01-24T11:35:13;4.80;99.90
24686;DHT22;12804;51.176;4.452;2023-01-24T11:40:36;5.00;99.90
24686;DHT22;12804;51.176;4.452;2023-01-24T11:46:10;5.20;99.90
24686;DHT22;12804;51.176;4.452;2023-01-24T11:59:51;4.90;99.90
24686;DHT22;12804;51.176;4.452;2023-01-24T12:13:57;4.80;99.90
24686;DHT22;12804;51.176;4.452;2023-01-24T12:19:25;5.10;99.90
24686;DHT22;12804;51.176;4.452;2023-01-24T12:21:59;5.10;99.90
24686;DHT22;12804;51.176;4.452;2023-01-24T12:24:37;5.10;99.90
24686;DHT22;12804;51.176;4.452;2023-01-24T12:27:13;4.70;99.90
24686;DHT22;12804;51.176;4.452;2023-01-24T12:29:44;4.60;99.90
24686;DHT22;12804;51.176;4.452;2023-01-24T12:32:33;4.40;99.90
24686;DHT22;12804;51.176;4.452;2023-01-24T12:37:53;4.60;99.90
24686;DHT22;12804;51.176;4.452;2023-01-24T12:40:28;4.80;99.90
24686;DHT22;12804;51.176;4.452;2023-01-24T12:48:16;4.90;99.90
24686;DHT22;12804;51.176;4.452;2023-01-24T12:50:53;5.10;99.90
24686;DHT22;12804;51.176;4.452;2023-01-24T12:53:31;5.10;99.90
24686;DHT22;12804;51.176;4.452;2023-01-24T12:56:08;5.10;99.90
24686;DHT22;12804;51.176;4.452;2023-01-24T12:58:42;4.90;99.90
24686;DHT22;12804;51.176;4.452;2023-01-24T13:09:11;4.90;99.90
24686;DHT22;12804;51.176;4.452;2023-01-24T13:11:44;4.80;99.90
24686;DHT22;12804;51.176;4.452;2023-01-24T13:17:25;4.70;99.90
24686;DHT22;12804;51.176;4.452;2023-01-24T13:25:04;4.80;99.90
24686;DHT22;12804;51.176;4.452;2023-01-24T13:28:11;4.80;99.90
24686;DHT22;12804;51.176;4.452;2023-01-24T13:30:47;4.90;99.90
24686;DHT22;12804;51.176;4.452;2023-01-24T13:33:17;5.00;99.90
24686;DHT22;12804;51.176;4.452;2023-01-24T13:35:52;4.80;99.90
24686;DHT22;12804;51.176;4.452;2023-01-24T13:38:23;4.70;99.90
24686;DHT22;12804;51.176;4.452;2023-01-24T13:41:03;4.60;99.90
24686;DHT22;12804;51.176;4.452;2023-01-24T13:43:54;4.30;99.90
24686;DHT22;12804;51.176;4.452;2023-01-24T13:51:59;4.80;99.90
24686;DHT22;12804;51.176;4.452;2023-01-24T13:54:39;4.70;99.90
24686;DHT22;12804;51.176;4.452;2023-01-24T13:57:21;4.60;99.90
24686;DHT22;12804;51.176;4.452;2023-01-24T14:00:15;4.70;99.90
24686;DHT22;12804;51.176;4.452;2023-01-24T14:07:59;4.90;99.90
24686;DHT22;12804;51.176;4.452;2023-01-24T14:10:37;4.80;99.90
24686;DHT22;12804;51.176;4.452;2023-01-24T14:13:05;4.70;99.90
24686;DHT22;12804;51.176;4.452;2023-01-24T14:15:41;4.70;99.90
24686;DHT22;12804;51.176;4.452;2023-01-24T14:18:40;4.60;99.90
24686;DHT22;12804;51.176;4.452;2023-01-24T14:21:17;4.50;99.90
24686;DHT22;12804;51.176;4.452;2023-01-24T14:23:49;4.50;99.90
24686;DHT22;12804;51.176;4.452;2023-01-24T14:26:20;4.50;99.90
24686;DHT22;12804;51.176;4.452;2023-01-24T14:28:53;4.60;99.90
24686;DHT22;12804;51.176;4.452;2023-01-24T14:31:28;4.70;99.90
24686;DHT22;12804;51.176;4.452;2023-01-24T14:36:41;4.60;99.90
24686;DHT22;12804;51.176;4.452;2023-01-24T14:39:18;4.50;99.90
24686;DHT22;12804;51.176;4.452;2023-01-24T14:41:51;4.50;99.90
24686;DHT22;12804;51.176;4.452;2023-01-24T14:44:25;4.60;99.90
24686;DHT22;12804;51.176;4.452;2023-01-24T14:46:59;4.70;99.90
24686;DHT22;12804;51.176;4.452;2023-01-24T14:49:36;4.60;99.90
24686;DHT22;12804;51.176;4.452;2023-01-24T14:52:30;4.60;99.90
24686;DHT22;12804;51.176;4.452;2023-01-24T14:55:22;4.70;99.90
24686;DHT22;12804;51.176;4.452;2023-01-24T14:57:53;4.60;99.90
24686;DHT22;12804;51.176;4.452;2023-01-24T15:00:20;4.30;99.90
24686;DHT22;12804;51.176;4.452;2023-01-24T15:02:55;4.10;99.90
24686;DHT22;12804;51.176;4.452;2023-01-24T15:05:32;4.10;99.90
24686;DHT22;12804;51.176;4.452;2023-01-24T15:07:59;4.10;99.90
24686;DHT22;12804;51.176;4.452;2023-01-24T15:10:31;4.40;99.90
24686;DHT22;12804;51.176;4.452;2023-01-24T15:13:02;4.50;99.90
24686;DHT22;12804;51.176;4.452;2023-01-24T15:15:29;4.40;99.90
24686;DHT22;12804;51.176;4.452;2023-01-24T15:18:06;4.30;99.90
24686;DHT22;12804;51.176;4.452;2023-01-24T15:20:33;4.30;99.90
24686;DHT22;12804;51.176;4.452;2023-01-24T15:23:00;4.40;99.90
24686;DHT22;12804;51.176;4.452;2023-01-24T15:25:30;4.30;99.90
24686;DHT22;12804;51.176;4.452;2023-01-24T15:28:07;4.40;99.90
24686;DHT22;12804;51.176;4.452;2023-01-24T15:30:33;4.30;99.90
24686;DHT22;12804;51.176;4.452;2023-01-24T15:33:01;4.40;99.90
24686;DHT22;12804;51.176;4.452;2023-01-24T15:35:38;4.40;99.90
24686;DHT22;12804;51.176;4.452;2023-01-24T15:43:28;4.40;99.90
24686;DHT22;12804;51.176;4.452;2023-01-24T15:46:21;4.50;99.90
24686;DHT22;12804;51.176;4.452;2023-01-24T15:54:42;4.30;99.90
24686;DHT22;12804;51.176;4.452;2023-01-24T15:57:29;4.10;99.90
24686;DHT22;12804;51.176;4.452;2023-01-24T15:59:59;4.30;99.90
24686;DHT22;12804;51.176;4.452;2023-01-24T16:02:25;4.20;99.90
24686;DHT22;12804;51.176;4.452;2023-01-24T16:04:51;4.20;99.90
24686;DHT22;12804;51.176;4.452;2023-01-24T16:07:17;4.00;99.90
24686;DHT22;12804;51.176;4.452;2023-01-24T16:09:47;4.00;99.90
24686;DHT22;12804;51.176;4.452;2023-01-24T16:12:16;3.90;99.90
24686;DHT22;12804;51.176;4.452;2023-01-24T16:14:46;3.90;99.90
24686;DHT22;12804;51.176;4.452;2023-01-24T16:17:13;3.90;99.90
24686;DHT22;12804;51.176;4.452;2023-01-24T16:19:39;4.00;99.90
24686;DHT22;12804;51.176;4.452;2023-01-24T16:22:05;4.20;99.90
24686;DHT22;12804;51.176;4.452;2023-01-24T16:24:30;4.00;99.90
24686;DHT22;12804;51.176;4.452;2023-01-24T16:26:56;4.00;99.90
24686;DHT22;12804;51.176;4.452;2023-01-24T16:29:25;4.10;99.90
24686;DHT22;12804;51.176;4.452;2023-01-24T16:31:51;4.00;99.90
24686;DHT22;12804;51.176;4.452;2023-01-24T16:34:17;4.00;99.90
24686;DHT22;12804;51.176;4.452;2023-01-24T16:36:44;4.00;99.90
24686;DHT22;12804;51.176;4.452;2023-01-24T16:39:19;4.10;99.90
24686;DHT22;12804;51.176;4.452;2023-01-24T16:41:46;4.10;99.90
24686;DHT22;12804;51.176;4.452;2023-01-24T16:44:13;4.10;99.90
24686;DHT22;12804;51.176;4.452;2023-01-24T16:46:39;4.20;99.90
24686;DHT22;12804;51.176;4.452;2023-01-24T16:49:06;4.30;99.90
24686;DHT22;12804;51.176;4.452;2023-01-24T16:51:32;4.10;99.90
24686;DHT22;12804;51.176;4.452;2023-01-24T16:53:57;4.10;99.90
24686;DHT22;12804;51.176;4.452;2023-01-24T16:56:24;4.00;99.90
24686;DHT22;12804;51.176;4.452;2023-01-24T16:58:56;4.10;99.90
24686;DHT22;12804;51.176;4.452;2023-01-24T17:01:21;4.00;99.90
24686;DHT22;12804;51.176;4.452;2023-01-24T17:03:51;3.90;99.90
24686;DHT22;12804;51.176;4.452;2023-01-24T17:06:18;3.80;99.90
24686;DHT22;12804;51.176;4.452;2023-01-24T17:08:44;3.90;99.90
24686;DHT22;12804;51.176;4.452;2023-01-24T17:11:11;3.70;99.90
24686;DHT22;12804;51.176;4.452;2023-01-24T17:13:37;3.70;99.90
24686;DHT22;12804;51.176;4.452;2023-01-24T17:16:09;3.70;99.90
24686;DHT22;12804;51.176;4.452;2023-01-24T17:18:36;3.70;99.90
24686;DHT22;12804;51.176;4.452;2023-01-24T17:21:08;3.60;99.90
24686;DHT22;12804;51.176;4.452;2023-01-24T17:23:35;3.70;99.90
24686;DHT22;12804;51.176;4.452;2023-01-24T17:26:07;3.50;99.90
24686;DHT22;12804;51.176;4.452;2023-01-24T17:28:38;3.60;99.90
24686;DHT22;12804;51.176;4.452;2023-01-24T17:31:12;3.70;99.90
24686;DHT22;12804;51.176;4.452;2023-01-24T17:33:39;3.60;99.90
24686;DHT22;12804;51.176;4.452;2023-01-24T17:36:06;3.60;99.90
24686;DHT22;12804;51.176;4.452;2023-01-24T17:38:32;3.60;99.90
24686;DHT22;12804;51.176;4.452;2023-01-24T17:40:59;3.60;99.90
24686;DHT22;12804;51.176;4.452;2023-01-24T17:43:25;3.40;99.90
24686;DHT22;12804;51.176;4.452;2023-01-24T17:45:58;3.60;99.90
24686;DHT22;12804;51.176;4.452;2023-01-24T17:48:25;3.40;99.90
24686;DHT22;12804;51.176;4.452;2023-01-24T17:50:52;3.40;99.90
24686;DHT22;12804;51.176;4.452;2023-01-24T17:53:18;3.60;99.90
24686;DHT22;12804;51.176;4.452;2023-01-24T17:55:45;3.60;99.90